PWSweather.com
Personal Weather Stations
Station Observations
IPORTUGA89
BarosaPT

BarosaPT

Lat: 39.754028, Lon: -8.843

Elevation: 98

Station Type: Davis Vp2

Latest ConditionsUpdated 10:52:52 AM GMT Thursday, Nov 23, 2017
Currently Today's Max Today's Min Today's Average
Temperature 69.4°F20.8°C 69.4°F20.8°C 61.2°F16.2°C 62.9°F17.2°C
Dew Point 58.8°F14.9°C 59.7°F15.4°C 56.8°F13.8°C 58.0°F14.4°C
Winds 8.9 mph SE14.3 kmh SE 11.0 mph S17.7 kmh S - 5.2 mph 8.4 kmh
Wind Gusts 21.0 mph33.8 kmh 23.0 mph37.0 kmh - -
Humidity 69% 89% 69% 84%
Pressure 30.01 in1016.3 mb 30.01 in1016.3 mb 29.90 in1012.5 mb -
Precipitation - 0.02 in0.5 mm - -
Hour Temp Dew Point Humidity Winds Wind Gusts Pressure Precip Precip Rate Daily Precip Total
10:52 AM 69.4°F20.8°C 58.8°F14.9°C 69% 8.9 mph SE14.3 kmh SE 21.0 mph33.8 kmh 30.01 in1016.3 mb 0.00 in0.0 mm 0.00 in0.0 mm 0.02 in0.5 mm
10:42 AM 69.1°F20.6°C 58.8°F14.9°C 70% 11.0 mph S17.7 kmh S 23.0 mph37.0 kmh 30.01 in1016.3 mb 0.00 in0.0 mm 0.00 in0.0 mm 0.02 in0.5 mm
10:32 AM 68.5°F20.3°C 59.5°F15.3°C 73% 8.9 mph SSE14.3 kmh SSE 16.1 mph25.9 kmh 30.01 in1016.3 mb 0.00 in0.0 mm 0.00 in0.0 mm 0.02 in0.5 mm
10:22 AM 67.1°F19.5°C 58.8°F14.9°C 75% 8.9 mph S14.3 kmh S 17.0 mph27.4 kmh 30.01 in1016.3 mb 0.00 in0.0 mm 0.00 in0.0 mm 0.02 in0.5 mm
10:12 AM 67.3°F19.6°C 59.0°F15.0°C 75% 10.1 mph SE16.3 kmh SE 17.9 mph28.8 kmh 30.01 in1016.3 mb 0.00 in0.0 mm 0.00 in0.0 mm 0.02 in0.5 mm
10:02 AM 66.9°F19.4°C 59.2°F15.1°C 76% 8.9 mph SSE14.3 kmh SSE 15.0 mph24.1 kmh 30.01 in1016.3 mb 0.00 in0.0 mm 0.00 in0.0 mm 0.02 in0.5 mm
09:52 AM 66.0°F18.9°C 59.7°F15.4°C 80% 8.9 mph SE14.3 kmh SE 16.1 mph25.9 kmh 30.01 in1016.3 mb 0.00 in0.0 mm 0.00 in0.0 mm 0.02 in0.5 mm
09:42 AM 64.9°F18.3°C 59.0°F15.0°C 81% 10.1 mph ESE16.3 kmh ESE 16.1 mph25.9 kmh 30.00 in1015.9 mb 0.00 in0.0 mm 0.00 in0.0 mm 0.02 in0.5 mm
09:32 AM 64.0°F17.8°C 58.5°F14.7°C 82% 8.9 mph SE14.3 kmh SE 16.1 mph25.9 kmh 30.00 in1015.9 mb 0.00 in0.0 mm 0.00 in0.0 mm 0.02 in0.5 mm
09:22 AM 63.7°F17.6°C 58.5°F14.7°C 83% 6.9 mph SE11.1 kmh SE 14.1 mph22.7 kmh 29.99 in1015.6 mb 0.00 in0.0 mm 0.00 in0.0 mm 0.02 in0.5 mm
09:12 AM 63.5°F17.5°C 58.6°F14.8°C 84% 8.9 mph SE14.3 kmh SE 15.0 mph24.1 kmh 29.99 in1015.6 mb 0.00 in0.0 mm 0.00 in0.0 mm 0.02 in0.5 mm
09:02 AM 63.5°F17.5°C 58.6°F14.8°C 84% 8.9 mph SSE14.3 kmh SSE 14.1 mph22.7 kmh 29.98 in1015.2 mb 0.00 in0.0 mm 0.00 in0.0 mm 0.02 in0.5 mm
08:52 AM 63.5°F17.5°C 58.6°F14.8°C 84% 8.1 mph SE13.0 kmh SE 13.0 mph20.9 kmh 29.98 in1015.2 mb 0.00 in0.0 mm 0.00 in0.0 mm 0.02 in0.5 mm
08:42 AM 63.3°F17.4°C 58.8°F14.9°C 85% 6.9 mph SE11.1 kmh SE 13.0 mph20.9 kmh 29.98 in1015.2 mb 0.01 in0.3 mm 0.00 in0.0 mm 0.02 in0.5 mm
08:32 AM 63.0°F17.2°C 58.6°F14.8°C 86% 8.1 mph SE13.0 kmh SE 13.0 mph20.9 kmh 29.97 in1014.9 mb 0.01 in0.3 mm 0.00 in0.0 mm 0.02 in0.5 mm
08:22 AM 62.8°F17.1°C 58.5°F14.7°C 86% 6.9 mph SE11.1 kmh SE 11.0 mph17.7 kmh 29.97 in1014.9 mb 0.01 in0.3 mm 0.00 in0.0 mm 0.02 in0.5 mm
08:12 AM 62.4°F16.9°C 58.1°F14.5°C 86% 4.9 mph S7.9 kmh S 13.0 mph20.9 kmh 29.97 in1014.9 mb 0.01 in0.3 mm 0.00 in0.0 mm 0.02 in0.5 mm
08:02 AM 62.4°F16.9°C 58.1°F14.5°C 86% 8.1 mph SE13.0 kmh SE 12.1 mph19.5 kmh 29.97 in1014.9 mb 0.01 in0.3 mm 0.00 in0.0 mm 0.02 in0.5 mm
07:52 AM 62.4°F16.9°C 58.1°F14.5°C 86% 8.1 mph SE13.0 kmh SE 13.0 mph20.9 kmh 29.96 in1014.6 mb 0.01 in0.3 mm 0.06 in1.5 mm 0.02 in0.5 mm
07:42 AM 62.4°F16.9°C 58.1°F14.5°C 86% 6.9 mph SE11.1 kmh SE 13.0 mph20.9 kmh 29.97 in1014.9 mb 0.00 in0.0 mm 0.00 in0.0 mm 0.02 in0.5 mm
07:32 AM 62.2°F16.8°C 57.9°F14.4°C 86% 8.1 mph SE13.0 kmh SE 13.0 mph20.9 kmh 29.96 in1014.6 mb 0.00 in0.0 mm 0.00 in0.0 mm 0.02 in0.5 mm
07:22 AM 62.2°F16.8°C 57.9°F14.4°C 86% 6.9 mph SE11.1 kmh SE 11.0 mph17.7 kmh 29.96 in1014.6 mb 0.00 in0.0 mm 0.00 in0.0 mm 0.02 in0.5 mm
07:12 AM 62.2°F16.8°C 57.9°F14.4°C 86% 6.9 mph SE11.1 kmh SE 12.1 mph19.5 kmh 29.95 in1014.2 mb 0.00 in0.0 mm 0.00 in0.0 mm 0.02 in0.5 mm
07:02 AM 62.2°F16.8°C 57.9°F14.4°C 86% 6.9 mph SE11.1 kmh SE 13.0 mph20.9 kmh 29.95 in1014.2 mb 0.00 in0.0 mm 0.00 in0.0 mm 0.02 in0.5 mm
06:52 AM 62.2°F16.8°C 57.9°F14.4°C 86% 6.9 mph SSE11.1 kmh SSE 13.0 mph20.9 kmh 29.94 in1013.9 mb 0.00 in0.0 mm 0.00 in0.0 mm 0.02 in0.5 mm
06:42 AM 62.2°F16.8°C 57.9°F14.4°C 86% 6.9 mph SE11.1 kmh SE 13.0 mph20.9 kmh 29.94 in1013.9 mb 0.00 in0.0 mm 0.00 in0.0 mm 0.02 in0.5 mm
06:32 AM 62.4°F16.9°C 58.1°F14.5°C 86% 8.1 mph SE13.0 kmh SE 14.1 mph22.7 kmh 29.93 in1013.5 mb 0.00 in0.0 mm 0.00 in0.0 mm 0.02 in0.5 mm
06:22 AM 62.4°F16.9°C 58.1°F14.5°C 86% 6.9 mph SE11.1 kmh SE 13.0 mph20.9 kmh 29.93 in1013.5 mb 0.00 in0.0 mm 0.00 in0.0 mm 0.02 in0.5 mm
06:12 AM 62.4°F16.9°C 58.5°F14.7°C 87% 6.0 mph SSE9.7 kmh SSE 12.1 mph19.5 kmh 29.93 in1013.5 mb 0.00 in0.0 mm 0.00 in0.0 mm 0.02 in0.5 mm
06:02 AM 62.2°F16.8°C 58.6°F14.8°C 88% 6.0 mph SE9.7 kmh SE 12.1 mph19.5 kmh 29.93 in1013.5 mb 0.00 in0.0 mm 0.00 in0.0 mm 0.02 in0.5 mm
05:52 AM 62.1°F16.7°C 58.5°F14.7°C 88% 2.0 mph SSW3.2 kmh SSW 8.1 mph13.0 kmh 29.93 in1013.5 mb 0.01 in0.3 mm 0.00 in0.0 mm 0.02 in0.5 mm
05:42 AM 62.1°F16.7°C 58.5°F14.7°C 88% 2.0 mph SSE3.2 kmh SSE 10.1 mph16.3 kmh 29.93 in1013.5 mb 0.01 in0.3 mm 0.00 in0.0 mm 0.02 in0.5 mm
05:32 AM 61.9°F16.6°C 58.6°F14.8°C 89% 2.0 mph SE3.2 kmh SE 8.9 mph14.3 kmh 29.93 in1013.5 mb 0.01 in0.3 mm 0.00 in0.0 mm 0.02 in0.5 mm
05:22 AM 62.1°F16.7°C 58.5°F14.7°C 88% 0.9 mph SE1.4 kmh SE 6.9 mph11.1 kmh 29.93 in1013.5 mb 0.01 in0.3 mm 0.00 in0.0 mm 0.02 in0.5 mm
05:11 AM 62.2°F16.8°C 58.3°F14.6°C 87% Calm Calm 2.9 mph4.7 kmh 29.92 in1013.2 mb 0.01 in0.3 mm 0.00 in0.0 mm 0.02 in0.5 mm
05:01 AM 62.6°F17.0°C 58.3°F14.6°C 86% 2.9 mph S4.7 kmh S 11.0 mph17.7 kmh 29.92 in1013.2 mb 0.01 in0.3 mm 0.01 in0.3 mm 0.02 in0.5 mm
04:51 AM 62.8°F17.1°C 58.5°F14.7°C 86% 4.9 mph SE7.9 kmh SE 10.1 mph16.3 kmh 29.92 in1013.2 mb 0.00 in0.0 mm 0.00 in0.0 mm 0.01 in0.3 mm
04:41 AM 62.4°F16.9°C 58.1°F14.5°C 86% 4.9 mph SE7.9 kmh SE 10.1 mph16.3 kmh 29.92 in1013.2 mb 0.00 in0.0 mm 0.00 in0.0 mm 0.01 in0.3 mm
04:31 AM 62.2°F16.8°C 57.9°F14.4°C 86% 4.9 mph SE7.9 kmh SE 10.1 mph16.3 kmh 29.92 in1013.2 mb 0.00 in0.0 mm 0.00 in0.0 mm 0.01 in0.3 mm
04:21 AM 61.9°F16.6°C 57.9°F14.4°C 87% 2.9 mph SE4.7 kmh SE 8.1 mph13.0 kmh 29.91 in1012.9 mb 0.00 in0.0 mm 0.00 in0.0 mm 0.01 in0.3 mm
04:11 AM 61.5°F16.4°C 57.6°F14.2°C 87% 0.9 mph SE1.4 kmh SE 8.1 mph13.0 kmh 29.91 in1012.9 mb 0.00 in0.0 mm 0.00 in0.0 mm 0.01 in0.3 mm
04:01 AM 61.5°F16.4°C 57.4°F14.1°C 86% Calm Calm -- 29.91 in1012.9 mb 0.00 in0.0 mm 0.00 in0.0 mm 0.01 in0.3 mm
03:51 AM 61.9°F16.6°C 57.6°F14.2°C 86% Calm Calm -- 29.91 in1012.9 mb 0.00 in0.0 mm 0.00 in0.0 mm 0.01 in0.3 mm
03:41 AM 62.2°F16.8°C 57.7°F14.3°C 85% Calm Calm -- 29.92 in1013.2 mb 0.00 in0.0 mm 0.00 in0.0 mm 0.01 in0.3 mm
03:31 AM 62.4°F16.9°C 57.9°F14.4°C 85% 2.9 mph SE4.7 kmh SE 8.1 mph13.0 kmh 29.92 in1013.2 mb 0.00 in0.0 mm 0.00 in0.0 mm 0.01 in0.3 mm
03:21 AM 62.4°F16.9°C 57.9°F14.4°C 85% 4.0 mph ESE6.4 kmh ESE 8.9 mph14.3 kmh 29.91 in1012.9 mb 0.00 in0.0 mm 0.00 in0.0 mm 0.01 in0.3 mm
03:11 AM 62.4°F16.9°C 57.9°F14.4°C 85% 4.0 mph SE6.4 kmh SE 8.1 mph13.0 kmh 29.92 in1013.2 mb 0.00 in0.0 mm 0.00 in0.0 mm 0.01 in0.3 mm
03:01 AM 62.4°F16.9°C 57.9°F14.4°C 85% 4.0 mph SE6.4 kmh SE 8.9 mph14.3 kmh 29.91 in1012.9 mb 0.00 in0.0 mm 0.00 in0.0 mm 0.01 in0.3 mm
02:51 AM 62.2°F16.8°C 57.7°F14.3°C 85% 2.9 mph SE4.7 kmh SE 8.1 mph13.0 kmh 29.91 in1012.9 mb 0.00 in0.0 mm 0.00 in0.0 mm 0.01 in0.3 mm
02:41 AM 62.1°F16.7°C 57.6°F14.2°C 85% 2.0 mph SE3.2 kmh SE 6.0 mph9.7 kmh 29.91 in1012.9 mb 0.00 in0.0 mm 0.00 in0.0 mm 0.01 in0.3 mm
02:31 AM 62.1°F16.7°C 57.6°F14.2°C 85% 4.0 mph SE6.4 kmh SE 8.9 mph14.3 kmh 29.91 in1012.9 mb 0.00 in0.0 mm 0.00 in0.0 mm 0.01 in0.3 mm
02:21 AM 61.9°F16.6°C 57.4°F14.1°C 85% 4.0 mph SSE6.4 kmh SSE 6.9 mph11.1 kmh 29.90 in1012.5 mb 0.00 in0.0 mm 0.00 in0.0 mm 0.01 in0.3 mm
02:11 AM 61.9°F16.6°C 57.0°F13.9°C 84% 2.9 mph SSE4.7 kmh SSE 8.1 mph13.0 kmh 29.90 in1012.5 mb 0.00 in0.0 mm 0.00 in0.0 mm 0.01 in0.3 mm
02:01 AM 62.1°F16.7°C 57.2°F14.0°C 84% 4.0 mph S6.4 kmh S 8.9 mph14.3 kmh 29.90 in1012.5 mb 0.00 in0.0 mm 0.00 in0.0 mm 0.01 in0.3 mm
01:51 AM 62.1°F16.7°C 57.2°F14.0°C 84% 4.0 mph SE6.4 kmh SE 8.9 mph14.3 kmh 29.90 in1012.5 mb 0.00 in0.0 mm 0.00 in0.0 mm 0.01 in0.3 mm
01:41 AM 62.2°F16.8°C 57.4°F14.1°C 84% 4.0 mph SE6.4 kmh SE 8.1 mph13.0 kmh 29.90 in1012.5 mb 0.00 in0.0 mm 0.00 in0.0 mm 0.01 in0.3 mm
01:31 AM 62.2°F16.8°C 57.4°F14.1°C 84% 2.9 mph SE4.7 kmh SE 8.9 mph14.3 kmh 29.90 in1012.5 mb 0.00 in0.0 mm 0.00 in0.0 mm 0.01 in0.3 mm
01:21 AM 62.2°F16.8°C 57.4°F14.1°C 84% 4.0 mph SE6.4 kmh SE 12.1 mph19.5 kmh 29.90 in1012.5 mb 0.00 in0.0 mm 0.00 in0.0 mm 0.01 in0.3 mm
01:11 AM 62.2°F16.8°C 57.4°F14.1°C 84% 4.0 mph SE6.4 kmh SE 8.9 mph14.3 kmh 29.90 in1012.5 mb 0.01 in0.3 mm 0.00 in0.0 mm 0.01 in0.3 mm
01:01 AM 62.1°F16.7°C 57.2°F14.0°C 84% 6.0 mph SE9.7 kmh SE 11.0 mph17.7 kmh 29.90 in1012.5 mb 0.01 in0.3 mm 0.00 in0.0 mm 0.01 in0.3 mm
12:51 AM 61.9°F16.6°C 57.4°F14.1°C 85% 4.9 mph SE7.9 kmh SE 10.1 mph16.3 kmh 29.90 in1012.5 mb 0.01 in0.3 mm 0.00 in0.0 mm 0.01 in0.3 mm
12:41 AM 61.3°F16.3°C 57.2°F14.0°C 86% 2.9 mph ESE4.7 kmh ESE 10.1 mph16.3 kmh 29.90 in1012.5 mb 0.01 in0.3 mm 0.00 in0.0 mm 0.01 in0.3 mm
12:31 AM 61.2°F16.2°C 57.0°F13.9°C 86% 2.9 mph S4.7 kmh S 6.0 mph9.7 kmh 29.90 in1012.5 mb 0.01 in0.3 mm 0.00 in0.0 mm 0.01 in0.3 mm
12:21 AM 61.3°F16.3°C 56.8°F13.8°C 85% 2.9 mph SE4.7 kmh SE 6.9 mph11.1 kmh 29.90 in1012.5 mb 0.01 in0.3 mm 0.00 in0.0 mm 0.01 in0.3 mm
12:10 AM 61.5°F16.4°C 57.0°F13.9°C 85% 2.9 mph SE4.7 kmh SE 8.9 mph14.3 kmh 29.90 in1012.5 mb 0.01 in0.3 mm 0.00 in0.0 mm 0.01 in0.3 mm
12:00 AM 61.9°F16.6°C 57.0°F13.9°C 84% 2.0 mph SE3.2 kmh SE 6.9 mph11.1 kmh 29.91 in1012.9 mb 0.01 in0.3 mm 0.00 in0.0 mm 0.01 in0.3 mm